sensor_id;sensor_type;location;lat;lon;timestamp;pressure;altitude;pressure_sealevel;temperature;humidity
48156;BME280;35568;48.104;11.782;2023-07-13T00:00:48;95382.83;;;18.89;58.52
48156;BME280;35568;48.104;11.782;2023-07-13T00:03:15;95379.07;;;19.02;58.29
48156;BME280;35568;48.104;11.782;2023-07-13T00:05:42;95375.63;;;19.01;58.06
48156;BME280;35568;48.104;11.782;2023-07-13T00:08:10;95366.24;;;19.03;58.07
48156;BME280;35568;48.104;11.782;2023-07-13T00:10:39;95353.34;;;19.12;58.06
48156;BME280;35568;48.104;11.782;2023-07-13T00:13:07;95349.51;;;18.96;57.83
48156;BME280;35568;48.104;11.782;2023-07-13T00:15:35;95351.99;;;19.00;58.17
48156;BME280;35568;48.104;11.782;2023-07-13T00:18:02;95352.39;;;18.86;58.03
48156;BME280;35568;48.104;11.782;2023-07-13T00:20:29;95351.09;;;18.87;58.12
48156;BME280;35568;48.104;11.782;2023-07-13T00:22:56;95361.08;;;19.06;58.20
48156;BME280;35568;48.104;11.782;2023-07-13T00:25:23;95373.72;;;18.04;57.95
48156;BME280;35568;48.104;11.782;2023-07-13T00:27:51;95377.48;;;19.44;56.88
48156;BME280;35568;48.104;11.782;2023-07-13T00:30:18;95382.48;;;19.42;57.04
48156;BME280;35568;48.104;11.782;2023-07-13T00:32:45;95373.69;;;19.32;57.16
48156;BME280;35568;48.104;11.782;2023-07-13T00:35:14;95370.00;;;19.28;57.37
48156;BME280;35568;48.104;11.782;2023-07-13T00:37:42;95375.60;;;19.27;57.39
48156;BME280;35568;48.104;11.782;2023-07-13T00:40:10;95379.62;;;19.55;57.33
48156;BME280;35568;48.104;11.782;2023-07-13T00:42:38;95380.87;;;19.38;57.25
48156;BME280;35568;48.104;11.782;2023-07-13T00:46:02;95385.31;;;19.47;57.15
48156;BME280;35568;48.104;11.782;2023-07-13T00:48:37;95386.73;;;19.48;57.00
48156;BME280;35568;48.104;11.782;2023-07-13T00:51:04;95382.50;;;19.38;57.30
48156;BME280;35568;48.104;11.782;2023-07-13T00:53:32;95379.19;;;19.41;57.17
48156;BME280;35568;48.104;11.782;2023-07-13T00:56:01;95380.72;;;19.51;56.95
48156;BME280;35568;48.104;11.782;2023-07-13T00:58:28;95386.97;;;19.49;56.90
48156;BME280;35568;48.104;11.782;2023-07-13T01:00:55;95389.82;;;19.38;57.28
48156;BME280;35568;48.104;11.782;2023-07-13T01:03:22;95391.78;;;19.24;57.71
48156;BME280;35568;48.104;11.782;2023-07-13T01:05:50;95387.14;;;19.20;57.85
48156;BME280;35568;48.104;11.782;2023-07-13T01:08:16;95375.39;;;19.24;57.76
48156;BME280;35568;48.104;11.782;2023-07-13T01:10:51;95373.25;;;19.11;57.70
48156;BME280;35568;48.104;11.782;2023-07-13T01:13:18;95367.01;;;19.06;58.09
48156;BME280;35568;48.104;11.782;2023-07-13T01:15:47;95354.54;;;19.26;57.87
48156;BME280;35568;48.104;11.782;2023-07-13T01:18:17;95354.33;;;19.85;56.89
48156;BME280;35568;48.104;11.782;2023-07-13T01:20:52;95351.18;;;19.64;56.83
48156;BME280;35568;48.104;11.782;2023-07-13T01:23:19;95344.31;;;19.85;56.50
48156;BME280;35568;48.104;11.782;2023-07-13T01:25:45;95335.62;;;19.78;56.54
48156;BME280;35568;48.104;11.782;2023-07-13T01:28:12;95332.82;;;19.59;56.56
48156;BME280;35568;48.104;11.782;2023-07-13T01:30:40;95325.05;;;19.52;56.86
48156;BME280;35568;48.104;11.782;2023-07-13T01:33:07;95321.13;;;19.52;56.84
48156;BME280;35568;48.104;11.782;2023-07-13T01:35:34;95322.15;;;19.53;56.95
48156;BME280;35568;48.104;11.782;2023-07-13T01:38:01;95317.10;;;19.68;56.76
48156;BME280;35568;48.104;11.782;2023-07-13T01:40:28;95318.53;;;19.54;56.90
48156;BME280;35568;48.104;11.782;2023-07-13T01:42:56;95321.90;;;19.33;56.61
48156;BME280;35568;48.104;11.782;2023-07-13T01:45:23;95322.67;;;19.81;56.12
48156;BME280;35568;48.104;11.782;2023-07-13T01:47:50;95324.61;;;19.80;56.06
48156;BME280;35568;48.104;11.782;2023-07-13T01:50:17;95330.14;;;19.69;55.96
48156;BME280;35568;48.104;11.782;2023-07-13T01:52:43;95345.95;;;19.24;56.85
48156;BME280;35568;48.104;11.782;2023-07-13T01:55:10;95351.05;;;19.31;56.94
48156;BME280;35568;48.104;11.782;2023-07-13T01:57:37;95350.75;;;19.59;56.60
48156;BME280;35568;48.104;11.782;2023-07-13T02:00:06;95349.70;;;19.67;56.42
48156;BME280;35568;48.104;11.782;2023-07-13T02:02:34;95348.83;;;19.77;56.15
48156;BME280;35568;48.104;11.782;2023-07-13T02:05:01;95349.82;;;19.46;56.01
48156;BME280;35568;48.104;11.782;2023-07-13T02:07:27;95353.10;;;19.38;56.36
48156;BME280;35568;48.104;11.782;2023-07-13T02:09:54;95358.97;;;19.36;56.72
48156;BME280;35568;48.104;11.782;2023-07-13T02:12:22;95362.85;;;19.39;56.62
48156;BME280;35568;48.104;11.782;2023-07-13T02:14:48;95366.44;;;19.33;56.87
48156;BME280;35568;48.104;11.782;2023-07-13T02:17:15;95365.36;;;19.48;57.00
48156;BME280;35568;48.104;11.782;2023-07-13T02:19:42;95362.72;;;19.17;57.24
48156;BME280;35568;48.104;11.782;2023-07-13T02:22:09;95360.85;;;19.24;57.03
48156;BME280;35568;48.104;11.782;2023-07-13T02:24:36;95365.82;;;19.48;56.77
48156;BME280;35568;48.104;11.782;2023-07-13T02:27:03;95366.57;;;19.63;56.58
48156;BME280;35568;48.104;11.782;2023-07-13T02:29:30;95372.11;;;19.77;56.39
48156;BME280;35568;48.104;11.782;2023-07-13T02:31:57;95378.85;;;20.16;56.03
48156;BME280;35568;48.104;11.782;2023-07-13T02:34:23;95383.91;;;19.88;55.95
48156;BME280;35568;48.104;11.782;2023-07-13T02:36:50;95388.29;;;19.99;55.78
48156;BME280;35568;48.104;11.782;2023-07-13T02:39:17;95388.36;;;20.21;55.08
48156;BME280;35568;48.104;11.782;2023-07-13T02:41:44;95390.80;;;20.00;55.30
48156;BME280;35568;48.104;11.782;2023-07-13T02:44:12;95388.78;;;20.09;54.24
48156;BME280;35568;48.104;11.782;2023-07-13T02:46:39;95389.51;;;20.19;53.93
48156;BME280;35568;48.104;11.782;2023-07-13T02:49:07;95393.24;;;20.32;53.79
48156;BME280;35568;48.104;11.782;2023-07-13T02:51:34;95390.93;;;20.31;54.39
48156;BME280;35568;48.104;11.782;2023-07-13T02:54:01;95400.58;;;20.26;54.93
48156;BME280;35568;48.104;11.782;2023-07-13T02:56:29;95406.20;;;20.28;55.04
48156;BME280;35568;48.104;11.782;2023-07-13T02:58:57;95410.73;;;20.06;55.38
48156;BME280;35568;48.104;11.782;2023-07-13T03:03:01;95417.77;;;20.22;55.25
48156;BME280;35568;48.104;11.782;2023-07-13T03:05:27;95417.56;;;19.74;55.42
48156;BME280;35568;48.104;11.782;2023-07-13T03:07:54;95414.26;;;19.77;55.92
48156;BME280;35568;48.104;11.782;2023-07-13T03:10:21;95416.85;;;19.69;56.08
48156;BME280;35568;48.104;11.782;2023-07-13T03:12:48;95416.13;;;19.31;56.81
48156;BME280;35568;48.104;11.782;2023-07-13T03:15:15;95419.59;;;19.09;57.39
48156;BME280;35568;48.104;11.782;2023-07-13T03:17:42;95421.66;;;19.07;57.55
48156;BME280;35568;48.104;11.782;2023-07-13T03:20:10;95425.38;;;19.65;57.54
48156;BME280;35568;48.104;11.782;2023-07-13T03:22:36;95431.24;;;19.39;57.66
48156;BME280;35568;48.104;11.782;2023-07-13T03:25:04;95437.60;;;19.25;57.57
48156;BME280;35568;48.104;11.782;2023-07-13T03:27:31;95441.84;;;19.12;57.78
48156;BME280;35568;48.104;11.782;2023-07-13T03:29:58;95442.40;;;19.11;58.17
48156;BME280;35568;48.104;11.782;2023-07-13T03:32:24;95446.58;;;19.46;57.86
48156;BME280;35568;48.104;11.782;2023-07-13T03:34:51;95448.81;;;19.19;58.02
48156;BME280;35568;48.104;11.782;2023-07-13T03:37:18;95448.75;;;19.22;58.04
48156;BME280;35568;48.104;11.782;2023-07-13T03:39:45;95444.73;;;19.62;57.71
48156;BME280;35568;48.104;11.782;2023-07-13T03:42:12;95441.28;;;19.24;58.25
48156;BME280;35568;48.104;11.782;2023-07-13T03:44:40;95437.45;;;19.69;57.30
48156;BME280;35568;48.104;11.782;2023-07-13T03:47:07;95435.41;;;19.87;56.62
48156;BME280;35568;48.104;11.782;2023-07-13T03:49:33;95443.61;;;19.56;56.96
48156;BME280;35568;48.104;11.782;2023-07-13T03:52:00;95443.50;;;19.15;56.56
48156;BME280;35568;48.104;11.782;2023-07-13T03:54:27;95444.91;;;18.85;56.98
48156;BME280;35568;48.104;11.782;2023-07-13T03:56:54;95446.57;;;19.05;57.18
48156;BME280;35568;48.104;11.782;2023-07-13T03:59:21;95452.12;;;18.90;57.36
48156;BME280;35568;48.104;11.782;2023-07-13T04:01:48;95455.45;;;18.80;57.73
48156;BME280;35568;48.104;11.782;2023-07-13T04:04:14;95453.25;;;18.40;57.76
48156;BME280;35568;48.104;11.782;2023-07-13T04:06:41;95448.05;;;18.60;57.92
48156;BME280;35568;48.104;11.782;2023-07-13T04:09:08;95448.57;;;18.43;58.01
48156;BME280;35568;48.104;11.782;2023-07-13T04:11:35;95450.35;;;18.53;58.06
48156;BME280;35568;48.104;11.782;2023-07-13T04:14:02;95446.42;;;18.20;58.24
48156;BME280;35568;48.104;11.782;2023-07-13T04:16:29;95457.07;;;18.44;57.99
48156;BME280;35568;48.104;11.782;2023-07-13T04:18:56;95456.36;;;18.83;57.65
48156;BME280;35568;48.104;11.782;2023-07-13T04:21:23;95453.06;;;18.68;57.48
48156;BME280;35568;48.104;11.782;2023-07-13T04:23:50;95454.57;;;18.60;57.11
48156;BME280;35568;48.104;11.782;2023-07-13T04:26:16;95459.79;;;18.44;57.45
48156;BME280;35568;48.104;11.782;2023-07-13T04:28:43;95462.60;;;18.52;57.59
48156;BME280;35568;48.104;11.782;2023-07-13T04:31:10;95465.02;;;18.43;57.74
48156;BME280;35568;48.104;11.782;2023-07-13T04:33:37;95465.55;;;18.44;58.01
48156;BME280;35568;48.104;11.782;2023-07-13T04:36:04;95466.58;;;18.42;57.85
48156;BME280;35568;48.104;11.782;2023-07-13T04:38:32;95465.32;;;18.47;57.70
48156;BME280;35568;48.104;11.782;2023-07-13T04:41:02;95463.02;;;18.55;57.42
48156;BME280;35568;48.104;11.782;2023-07-13T04:43:31;95462.80;;;18.88;57.15
48156;BME280;35568;48.104;11.782;2023-07-13T04:46:03;95464.85;;;19.06;56.86
48156;BME280;35568;48.104;11.782;2023-07-13T04:48:31;95466.67;;;18.70;56.43
48156;BME280;35568;48.104;11.782;2023-07-13T04:50:58;95468.08;;;18.83;56.78
48156;BME280;35568;48.104;11.782;2023-07-13T04:53:27;95472.36;;;18.86;56.65
48156;BME280;35568;48.104;11.782;2023-07-13T04:55:54;95473.33;;;18.64;57.24
48156;BME280;35568;48.104;11.782;2023-07-13T04:58:23;95477.87;;;18.63;56.77
48156;BME280;35568;48.104;11.782;2023-07-13T05:00:50;95478.27;;;18.49;56.90
48156;BME280;35568;48.104;11.782;2023-07-13T05:03:16;95480.83;;;18.72;56.99
48156;BME280;35568;48.104;11.782;2023-07-13T05:05:55;95481.41;;;18.59;56.93
48156;BME280;35568;48.104;11.782;2023-07-13T05:08:22;95483.25;;;18.53;57.22
48156;BME280;35568;48.104;11.782;2023-07-13T05:10:49;95487.40;;;18.31;57.21
48156;BME280;35568;48.104;11.782;2023-07-13T05:13:16;95495.66;;;18.38;57.07
48156;BME280;35568;48.104;11.782;2023-07-13T05:15:44;95498.65;;;17.56;57.11
48156;BME280;35568;48.104;11.782;2023-07-13T05:18:11;95495.72;;;18.46;56.38
48156;BME280;35568;48.104;11.782;2023-07-13T05:20:37;95494.29;;;18.24;56.57
48156;BME280;35568;48.104;11.782;2023-07-13T05:23:04;95492.31;;;18.71;56.48
48156;BME280;35568;48.104;11.782;2023-07-13T05:25:31;95487.09;;;18.77;56.42
48156;BME280;35568;48.104;11.782;2023-07-13T05:27:58;95488.29;;;18.87;56.00
48156;BME280;35568;48.104;11.782;2023-07-13T05:30:25;95488.65;;;18.87;55.79
48156;BME280;35568;48.104;11.782;2023-07-13T05:32:51;95494.91;;;19.13;55.67
48156;BME280;35568;48.104;11.782;2023-07-13T05:35:19;95496.12;;;19.00;55.41
48156;BME280;35568;48.104;11.782;2023-07-13T05:37:45;95497.37;;;18.83;55.55
48156;BME280;35568;48.104;11.782;2023-07-13T05:40:12;95499.52;;;18.48;55.66
48156;BME280;35568;48.104;11.782;2023-07-13T05:42:39;95500.30;;;18.67;55.56
48156;BME280;35568;48.104;11.782;2023-07-13T05:45:07;95503.90;;;18.88;55.69
48156;BME280;35568;48.104;11.782;2023-07-13T05:47:33;95504.65;;;18.75;56.16
48156;BME280;35568;48.104;11.782;2023-07-13T05:50:00;95503.60;;;18.58;56.56
48156;BME280;35568;48.104;11.782;2023-07-13T05:52:27;95505.58;;;18.22;56.59
48156;BME280;35568;48.104;11.782;2023-07-13T05:54:54;95509.24;;;19.07;55.87
48156;BME280;35568;48.104;11.782;2023-07-13T05:57:21;95505.22;;;18.81;55.67
48156;BME280;35568;48.104;11.782;2023-07-13T05:59:48;95506.27;;;19.15;54.56
48156;BME280;35568;48.104;11.782;2023-07-13T06:02:14;95511.69;;;19.05;54.95
48156;BME280;35568;48.104;11.782;2023-07-13T06:04:41;95512.68;;;18.91;54.98
48156;BME280;35568;48.104;11.782;2023-07-13T06:07:08;95511.86;;;18.94;55.29
48156;BME280;35568;48.104;11.782;2023-07-13T06:09:34;95508.98;;;18.79;55.60
48156;BME280;35568;48.104;11.782;2023-07-13T06:12:01;95514.11;;;19.05;55.64
48156;BME280;35568;48.104;11.782;2023-07-13T06:14:38;95519.01;;;19.31;55.31
48156;BME280;35568;48.104;11.782;2023-07-13T06:17:11;95523.17;;;19.18;55.12
48156;BME280;35568;48.104;11.782;2023-07-13T06:19:43;95523.22;;;19.48;54.95
48156;BME280;35568;48.104;11.782;2023-07-13T06:22:18;95525.74;;;19.53;54.46
48156;BME280;35568;48.104;11.782;2023-07-13T06:24:56;95523.34;;;19.77;54.43
48156;BME280;35568;48.104;11.782;2023-07-13T06:27:31;95527.22;;;19.84;54.46
48156;BME280;35568;48.104;11.782;2023-07-13T06:29:58;95531.62;;;19.60;55.06
48156;BME280;35568;48.104;11.782;2023-07-13T06:32:25;95537.01;;;19.48;55.08
48156;BME280;35568;48.104;11.782;2023-07-13T06:34:55;95543.30;;;19.21;55.52
48156;BME280;35568;48.104;11.782;2023-07-13T06:37:26;95546.31;;;19.25;55.59
48156;BME280;35568;48.104;11.782;2023-07-13T06:39:57;95546.94;;;19.22;55.73
48156;BME280;35568;48.104;11.782;2023-07-13T06:42:23;95552.83;;;19.39;55.59
48156;BME280;35568;48.104;11.782;2023-07-13T06:44:50;95554.98;;;19.63;55.03
48156;BME280;35568;48.104;11.782;2023-07-13T06:47:17;95555.29;;;19.17;55.35
48156;BME280;35568;48.104;11.782;2023-07-13T06:49:44;95554.75;;;19.36;55.56
48156;BME280;35568;48.104;11.782;2023-07-13T06:52:11;95558.28;;;19.90;55.24
48156;BME280;35568;48.104;11.782;2023-07-13T06:54:37;95561.78;;;19.42;55.36
48156;BME280;35568;48.104;11.782;2023-07-13T06:57:05;95564.00;;;19.56;55.22
48156;BME280;35568;48.104;11.782;2023-07-13T06:59:32;95561.67;;;20.19;54.72
48156;BME280;35568;48.104;11.782;2023-07-13T07:01:58;95564.18;;;20.53;54.45
48156;BME280;35568;48.104;11.782;2023-07-13T07:04:25;95562.64;;;20.51;54.23
48156;BME280;35568;48.104;11.782;2023-07-13T07:06:52;95563.45;;;20.40;53.58
48156;BME280;35568;48.104;11.782;2023-07-13T07:09:20;95566.80;;;20.43;53.94
48156;BME280;35568;48.104;11.782;2023-07-13T07:11:46;95567.49;;;20.66;53.67
48156;BME280;35568;48.104;11.782;2023-07-13T07:14:13;95568.13;;;20.45;53.07
48156;BME280;35568;48.104;11.782;2023-07-13T07:16:40;95571.58;;;20.30;53.34
48156;BME280;35568;48.104;11.782;2023-07-13T07:19:07;95569.04;;;20.28;53.42
48156;BME280;35568;48.104;11.782;2023-07-13T07:21:34;95567.54;;;20.20;53.19
48156;BME280;35568;48.104;11.782;2023-07-13T07:24:00;95566.19;;;20.21;53.49
48156;BME280;35568;48.104;11.782;2023-07-13T07:26:27;95564.52;;;20.41;53.09
48156;BME280;35568;48.104;11.782;2023-07-13T07:28:54;95564.30;;;20.65;52.36
48156;BME280;35568;48.104;11.782;2023-07-13T07:31:21;95566.87;;;20.46;52.09
48156;BME280;35568;48.104;11.782;2023-07-13T07:33:48;95567.89;;;20.49;51.61
48156;BME280;35568;48.104;11.782;2023-07-13T07:36:15;95574.95;;;20.32;51.48
48156;BME280;35568;48.104;11.782;2023-07-13T07:38:42;95572.74;;;20.48;52.30
48156;BME280;35568;48.104;11.782;2023-07-13T07:41:08;95578.64;;;20.48;51.73
48156;BME280;35568;48.104;11.782;2023-07-13T07:43:35;95580.46;;;20.55;51.80
48156;BME280;35568;48.104;11.782;2023-07-13T07:46:02;95579.44;;;20.23;51.64
48156;BME280;35568;48.104;11.782;2023-07-13T07:48:29;95584.74;;;20.71;51.67
48156;BME280;35568;48.104;11.782;2023-07-13T07:50:56;95588.10;;;20.03;51.66
48156;BME280;35568;48.104;11.782;2023-07-13T07:53:22;95599.55;;;20.51;52.51
48156;BME280;35568;48.104;11.782;2023-07-13T07:55:49;95603.86;;;20.12;53.24
48156;BME280;35568;48.104;11.782;2023-07-13T07:58:16;95606.59;;;20.39;53.14
48156;BME280;35568;48.104;11.782;2023-07-13T08:00:43;95606.03;;;20.45;53.29
48156;BME280;35568;48.104;11.782;2023-07-13T08:03:09;95606.68;;;20.43;52.82
48156;BME280;35568;48.104;11.782;2023-07-13T08:05:36;95612.47;;;20.28;52.45
48156;BME280;35568;48.104;11.782;2023-07-13T08:08:03;95615.08;;;20.06;52.35
48156;BME280;35568;48.104;11.782;2023-07-13T08:10:31;95618.63;;;20.34;51.47
48156;BME280;35568;48.104;11.782;2023-07-13T08:12:57;95616.87;;;20.45;52.08
48156;BME280;35568;48.104;11.782;2023-07-13T08:15:29;95619.82;;;20.24;50.56
48156;BME280;35568;48.104;11.782;2023-07-13T08:17:56;95621.93;;;20.05;50.39
48156;BME280;35568;48.104;11.782;2023-07-13T08:20:23;95626.62;;;20.17;51.16
48156;BME280;35568;48.104;11.782;2023-07-13T08:22:50;95628.80;;;20.00;50.59
48156;BME280;35568;48.104;11.782;2023-07-13T08:25:16;95629.18;;;20.17;50.82
48156;BME280;35568;48.104;11.782;2023-07-13T08:27:44;95630.99;;;19.53;50.84
48156;BME280;35568;48.104;11.782;2023-07-13T08:30:11;95630.27;;;20.05;51.50
48156;BME280;35568;48.104;11.782;2023-07-13T08:32:38;95630.44;;;20.17;51.87
48156;BME280;35568;48.104;11.782;2023-07-13T08:35:05;95633.13;;;20.10;51.06
48156;BME280;35568;48.104;11.782;2023-07-13T08:37:32;95634.28;;;19.91;51.82
48156;BME280;35568;48.104;11.782;2023-07-13T08:39:59;95633.75;;;20.00;51.42
48156;BME280;35568;48.104;11.782;2023-07-13T08:42:33;95631.59;;;19.83;51.68
48156;BME280;35568;48.104;11.782;2023-07-13T08:45:11;95639.98;;;20.00;51.92
48156;BME280;35568;48.104;11.782;2023-07-13T08:47:44;95641.35;;;20.23;51.35
48156;BME280;35568;48.104;11.782;2023-07-13T08:50:14;95641.35;;;20.38;51.79
48156;BME280;35568;48.104;11.782;2023-07-13T08:52:44;95647.60;;;20.26;51.22
48156;BME280;35568;48.104;11.782;2023-07-13T08:55:14;95657.86;;;20.28;50.62
48156;BME280;35568;48.104;11.782;2023-07-13T08:57:44;95660.72;;;20.33;50.67
48156;BME280;35568;48.104;11.782;2023-07-13T09:00:13;95663.73;;;20.39;50.25
48156;BME280;35568;48.104;11.782;2023-07-13T09:02:45;95661.20;;;20.35;49.99
48156;BME280;35568;48.104;11.782;2023-07-13T09:05:15;95660.91;;;20.12;50.42
48156;BME280;35568;48.104;11.782;2023-07-13T09:07:57;95664.09;;;20.61;50.75
48156;BME280;35568;48.104;11.782;2023-07-13T09:10:30;95658.97;;;20.27;51.59
48156;BME280;35568;48.104;11.782;2023-07-13T09:13:11;95661.33;;;20.35;51.15
48156;BME280;35568;48.104;11.782;2023-07-13T09:15:43;95663.52;;;20.20;51.05
48156;BME280;35568;48.104;11.782;2023-07-13T09:18:14;95662.91;;;20.30;51.07
48156;BME280;35568;48.104;11.782;2023-07-13T09:20:49;95657.72;;;20.27;51.06
48156;BME280;35568;48.104;11.782;2023-07-13T09:23:21;95654.38;;;20.25;52.06
48156;BME280;35568;48.104;11.782;2023-07-13T09:25:51;95650.23;;;20.07;50.86
48156;BME280;35568;48.104;11.782;2023-07-13T09:28:23;95652.35;;;20.49;50.79
48156;BME280;35568;48.104;11.782;2023-07-13T09:30:54;95654.64;;;20.83;50.81
48156;BME280;35568;48.104;11.782;2023-07-13T09:33:22;95658.32;;;20.98;50.11
48156;BME280;35568;48.104;11.782;2023-07-13T09:35:49;95658.40;;;20.67;49.89
48156;BME280;35568;48.104;11.782;2023-07-13T09:38:18;95660.56;;;20.54;50.07
48156;BME280;35568;48.104;11.782;2023-07-13T09:40:57;95660.01;;;20.43;50.16
48156;BME280;35568;48.104;11.782;2023-07-13T09:43:26;95658.12;;;20.30;50.65
48156;BME280;35568;48.104;11.782;2023-07-13T09:45:53;95660.50;;;20.70;49.58
48156;BME280;35568;48.104;11.782;2023-07-13T09:48:21;95660.05;;;20.38;49.46
48156;BME280;35568;48.104;11.782;2023-07-13T09:50:48;95658.57;;;20.46;49.28
48156;BME280;35568;48.104;11.782;2023-07-13T09:53:16;95657.90;;;20.81;49.54
48156;BME280;35568;48.104;11.782;2023-07-13T09:55:46;95662.28;;;20.50;50.31
48156;BME280;35568;48.104;11.782;2023-07-13T09:58:15;95663.91;;;21.06;49.83
48156;BME280;35568;48.104;11.782;2023-07-13T10:00:53;95659.38;;;20.83;49.25
48156;BME280;35568;48.104;11.782;2023-07-13T10:03:25;95658.58;;;21.16;49.11
48156;BME280;35568;48.104;11.782;2023-07-13T10:05:53;95660.40;;;21.65;47.81
48156;BME280;35568;48.104;11.782;2023-07-13T10:08:24;95659.77;;;21.76;46.79
48156;BME280;35568;48.104;11.782;2023-07-13T10:10:54;95657.88;;;21.29;47.33
48156;BME280;35568;48.104;11.782;2023-07-13T10:13:27;95664.92;;;21.67;45.61
48156;BME280;35568;48.104;11.782;2023-07-13T10:15:55;95676.16;;;22.05;46.17
48156;BME280;35568;48.104;11.782;2023-07-13T10:18:25;95681.07;;;21.41;47.00
48156;BME280;35568;48.104;11.782;2023-07-13T10:20:58;95676.82;;;21.83;44.72
48156;BME280;35568;48.104;11.782;2023-07-13T10:23:31;95674.50;;;22.31;44.90
48156;BME280;35568;48.104;11.782;2023-07-13T10:25:59;95675.41;;;22.46;45.51
48156;BME280;35568;48.104;11.782;2023-07-13T10:28:30;95680.55;;;22.63;45.36
48156;BME280;35568;48.104;11.782;2023-07-13T10:31:01;95685.80;;;22.40;44.43
48156;BME280;35568;48.104;11.782;2023-07-13T10:33:28;95683.16;;;22.80;44.70
48156;BME280;35568;48.104;11.782;2023-07-13T10:36:04;95685.07;;;23.24;43.89
48156;BME280;35568;48.104;11.782;2023-07-13T10:38:33;95683.88;;;23.83;41.52
48156;BME280;35568;48.104;11.782;2023-07-13T10:41:03;95682.72;;;24.70;40.51
48156;BME280;35568;48.104;11.782;2023-07-13T10:43:35;95682.72;;;25.55;39.45
48156;BME280;35568;48.104;11.782;2023-07-13T10:46:04;95677.13;;;25.64;35.97
48156;BME280;35568;48.104;11.782;2023-07-13T10:48:33;95675.07;;;26.12;35.72
48156;BME280;35568;48.104;11.782;2023-07-13T10:51:01;95678.60;;;25.74;35.88
48156;BME280;35568;48.104;11.782;2023-07-13T10:53:31;95679.23;;;26.30;33.79
48156;BME280;35568;48.104;11.782;2023-07-13T10:56:00;95681.25;;;27.36;31.99
48156;BME280;35568;48.104;11.782;2023-07-13T10:58:32;95683.28;;;28.31;31.22
48156;BME280;35568;48.104;11.782;2023-07-13T11:01:08;95686.07;;;27.87;30.92
48156;BME280;35568;48.104;11.782;2023-07-13T11:03:37;95685.73;;;27.73;29.72
48156;BME280;35568;48.104;11.782;2023-07-13T11:06:11;95681.80;;;27.79;31.01
48156;BME280;35568;48.104;11.782;2023-07-13T11:08:52;95671.83;;;28.01;30.53
48156;BME280;35568;48.104;11.782;2023-07-13T11:11:37;95682.01;;;28.59;30.07
48156;BME280;35568;48.104;11.782;2023-07-13T11:14:25;95685.97;;;28.33;31.06
48156;BME280;35568;48.104;11.782;2023-07-13T11:16:53;95680.25;;;27.84;31.39
48156;BME280;35568;48.104;11.782;2023-07-13T11:19:38;95677.33;;;28.09;31.52
48156;BME280;35568;48.104;11.782;2023-07-13T11:22:16;95681.91;;;28.21;30.87
48156;BME280;35568;48.104;11.782;2023-07-13T11:24:56;95680.09;;;27.67;30.91
48156;BME280;35568;48.104;11.782;2023-07-13T11:27:35;95677.85;;;28.17;30.11
48156;BME280;35568;48.104;11.782;2023-07-13T11:30:34;95680.25;;;27.51;29.97
48156;BME280;35568;48.104;11.782;2023-07-13T11:33:08;95670.89;;;27.75;29.24
48156;BME280;35568;48.104;11.782;2023-07-13T11:35:42;95672.74;;;28.16;30.02
48156;BME280;35568;48.104;11.782;2023-07-13T11:38:15;95667.90;;;27.67;29.40
48156;BME280;35568;48.104;11.782;2023-07-13T11:40:44;95670.99;;;28.42;29.12
48156;BME280;35568;48.104;11.782;2023-07-13T11:43:18;95661.59;;;29.12;26.96
48156;BME280;35568;48.104;11.782;2023-07-13T11:45:45;95657.00;;;29.70;27.12
48156;BME280;35568;48.104;11.782;2023-07-13T11:48:21;95646.99;;;30.09;26.94
48156;BME280;35568;48.104;11.782;2023-07-13T11:50:54;95641.87;;;30.75;25.83
48156;BME280;35568;48.104;11.782;2023-07-13T11:53:24;95639.69;;;31.44;25.13
48156;BME280;35568;48.104;11.782;2023-07-13T11:55:52;95635.15;;;31.40;22.91
48156;BME280;35568;48.104;11.782;2023-07-13T11:58:22;95633.31;;;31.46;23.02
48156;BME280;35568;48.104;11.782;2023-07-13T12:00:50;95632.90;;;31.32;23.81
48156;BME280;35568;48.104;11.782;2023-07-13T12:03:20;95633.11;;;30.36;24.12
48156;BME280;35568;48.104;11.782;2023-07-13T12:05:56;95630.79;;;30.77;24.62
48156;BME280;35568;48.104;11.782;2023-07-13T12:08:23;95629.68;;;30.57;24.11
48156;BME280;35568;48.104;11.782;2023-07-13T12:10:58;95617.58;;;32.06;24.04
48156;BME280;35568;48.104;11.782;2023-07-13T12:13:27;95613.63;;;31.61;22.74
48156;BME280;35568;48.104;11.782;2023-07-13T12:15:57;95611.01;;;32.43;22.44
48156;BME280;35568;48.104;11.782;2023-07-13T12:18:29;95616.60;;;32.45;22.79
48156;BME280;35568;48.104;11.782;2023-07-13T12:20:59;95615.15;;;32.74;22.33
48156;BME280;35568;48.104;11.782;2023-07-13T12:23:29;95617.09;;;32.14;22.59
48156;BME280;35568;48.104;11.782;2023-07-13T12:25:59;95617.35;;;31.53;22.48
48156;BME280;35568;48.104;11.782;2023-07-13T12:28:32;95616.00;;;33.58;20.46
48156;BME280;35568;48.104;11.782;2023-07-13T12:31:00;95607.59;;;34.69;19.52
48156;BME280;35568;48.104;11.782;2023-07-13T12:33:29;95609.51;;;34.85;19.32
48156;BME280;35568;48.104;11.782;2023-07-13T12:35:56;95609.11;;;34.66;18.75
48156;BME280;35568;48.104;11.782;2023-07-13T12:38:25;95600.88;;;34.51;19.07
48156;BME280;35568;48.104;11.782;2023-07-13T12:40:52;95596.86;;;35.15;18.38
48156;BME280;35568;48.104;11.782;2023-07-13T12:43:21;95598.78;;;34.28;19.40
48156;BME280;35568;48.104;11.782;2023-07-13T12:45:59;95603.75;;;34.89;19.46
48156;BME280;35568;48.104;11.782;2023-07-13T12:48:28;95601.90;;;33.57;19.76
48156;BME280;35568;48.104;11.782;2023-07-13T12:50:56;95602.13;;;32.59;20.45
48156;BME280;35568;48.104;11.782;2023-07-13T12:53:29;95600.56;;;31.91;21.30
48156;BME280;35568;48.104;11.782;2023-07-13T12:55:59;95600.14;;;31.16;22.35
48156;BME280;35568;48.104;11.782;2023-07-13T12:58:31;95599.00;;;31.66;21.77
48156;BME280;35568;48.104;11.782;2023-07-13T13:01:01;95596.65;;;32.50;20.84